sensor_id;sensor_type;location;lat;lon;timestamp;P1;durP1;ratioP1;P2;durP2;ratioP2
2546;SDS011;1283;47.982;7.834;2023-07-29T00:00:49;4.45;;;1.45;;
2546;SDS011;1283;47.982;7.834;2023-07-29T00:03:16;3.70;;;1.00;;
2546;SDS011;1283;47.982;7.834;2023-07-29T00:05:42;4.95;;;0.82;;
2546;SDS011;1283;47.982;7.834;2023-07-29T00:08:09;2.05;;;0.90;;
2546;SDS011;1283;47.982;7.834;2023-07-29T00:10:36;4.35;;;1.42;;
2546;SDS011;1283;47.982;7.834;2023-07-29T00:13:04;4.90;;;1.30;;
2546;SDS011;1283;47.982;7.834;2023-07-29T00:15:30;2.08;;;1.23;;
2546;SDS011;1283;47.982;7.834;2023-07-29T00:17:57;4.25;;;1.00;;
2546;SDS011;1283;47.982;7.834;2023-07-29T00:20:23;5.90;;;1.15;;
2546;SDS011;1283;47.982;7.834;2023-07-29T00:22:50;3.85;;;1.25;;
2546;SDS011;1283;47.982;7.834;2023-07-29T00:25:18;5.15;;;1.50;;
2546;SDS011;1283;47.982;7.834;2023-07-29T00:27:45;8.57;;;1.60;;
2546;SDS011;1283;47.982;7.834;2023-07-29T00:30:13;5.80;;;1.50;;
2546;SDS011;1283;47.982;7.834;2023-07-29T00:32:39;8.00;;;1.73;;
2546;SDS011;1283;47.982;7.834;2023-07-29T00:35:06;5.80;;;1.83;;
2546;SDS011;1283;47.982;7.834;2023-07-29T00:37:33;6.13;;;1.80;;
2546;SDS011;1283;47.982;7.834;2023-07-29T00:40:00;7.28;;;1.73;;
2546;SDS011;1283;47.982;7.834;2023-07-29T00:42:26;3.65;;;1.52;;
2546;SDS011;1283;47.982;7.834;2023-07-29T00:44:52;5.15;;;1.35;;
2546;SDS011;1283;47.982;7.834;2023-07-29T00:47:20;5.10;;;1.30;;
2546;SDS011;1283;47.982;7.834;2023-07-29T00:49:48;4.30;;;1.60;;
2546;SDS011;1283;47.982;7.834;2023-07-29T00:52:14;4.95;;;1.50;;
2546;SDS011;1283;47.982;7.834;2023-07-29T00:54:41;5.53;;;1.90;;
2546;SDS011;1283;47.982;7.834;2023-07-29T00:57:08;3.05;;;1.30;;
2546;SDS011;1283;47.982;7.834;2023-07-29T00:59:36;5.13;;;1.67;;
2546;SDS011;1283;47.982;7.834;2023-07-29T01:02:03;7.57;;;2.13;;
2546;SDS011;1283;47.982;7.834;2023-07-29T01:04:31;5.40;;;1.88;;
2546;SDS011;1283;47.982;7.834;2023-07-29T01:06:58;3.58;;;1.40;;
2546;SDS011;1283;47.982;7.834;2023-07-29T01:09:30;3.08;;;1.30;;
2546;SDS011;1283;47.982;7.834;2023-07-29T01:12:01;5.85;;;1.63;;
2546;SDS011;1283;47.982;7.834;2023-07-29T01:14:35;8.90;;;1.75;;
2546;SDS011;1283;47.982;7.834;2023-07-29T01:17:07;1.60;;;1.13;;
2546;SDS011;1283;47.982;7.834;2023-07-29T01:19:42;7.18;;;2.03;;
2546;SDS011;1283;47.982;7.834;2023-07-29T01:22:10;3.40;;;1.25;;
2546;SDS011;1283;47.982;7.834;2023-07-29T01:24:38;1.75;;;1.20;;
2546;SDS011;1283;47.982;7.834;2023-07-29T01:27:05;6.88;;;1.27;;
2546;SDS011;1283;47.982;7.834;2023-07-29T01:29:31;3.72;;;2.50;;
2546;SDS011;1283;47.982;7.834;2023-07-29T01:31:59;2.25;;;1.20;;
2546;SDS011;1283;47.982;7.834;2023-07-29T01:34:29;2.00;;;1.02;;
2546;SDS011;1283;47.982;7.834;2023-07-29T01:36:59;5.32;;;1.38;;
2546;SDS011;1283;47.982;7.834;2023-07-29T01:39:27;3.90;;;1.35;;
2546;SDS011;1283;47.982;7.834;2023-07-29T01:41:56;5.20;;;1.40;;
2546;SDS011;1283;47.982;7.834;2023-07-29T01:44:23;5.55;;;1.40;;
2546;SDS011;1283;47.982;7.834;2023-07-29T01:46:50;2.92;;;1.20;;
2546;SDS011;1283;47.982;7.834;2023-07-29T01:49:16;2.40;;;1.30;;
2546;SDS011;1283;47.982;7.834;2023-07-29T01:51:42;6.28;;;1.30;;
2546;SDS011;1283;47.982;7.834;2023-07-29T01:54:09;7.43;;;1.33;;
2546;SDS011;1283;47.982;7.834;2023-07-29T01:56:36;8.80;;;1.67;;
2546;SDS011;1283;47.982;7.834;2023-07-29T01:59:03;2.10;;;1.20;;
2546;SDS011;1283;47.982;7.834;2023-07-29T02:01:30;2.50;;;1.25;;
2546;SDS011;1283;47.982;7.834;2023-07-29T02:03:56;6.80;;;1.30;;
2546;SDS011;1283;47.982;7.834;2023-07-29T02:06:23;1.42;;;1.05;;
2546;SDS011;1283;47.982;7.834;2023-07-29T02:08:50;3.08;;;1.50;;
2546;SDS011;1283;47.982;7.834;2023-07-29T02:11:17;5.80;;;1.35;;
2546;SDS011;1283;47.982;7.834;2023-07-29T02:13:45;5.03;;;1.08;;
2546;SDS011;1283;47.982;7.834;2023-07-29T02:16:13;8.73;;;1.60;;
2546;SDS011;1283;47.982;7.834;2023-07-29T02:18:39;3.53;;;1.20;;
2546;SDS011;1283;47.982;7.834;2023-07-29T02:21:06;5.95;;;1.40;;
2546;SDS011;1283;47.982;7.834;2023-07-29T02:23:32;3.83;;;1.25;;
2546;SDS011;1283;47.982;7.834;2023-07-29T02:25:59;2.15;;;1.38;;
2546;SDS011;1283;47.982;7.834;2023-07-29T02:28:25;7.30;;;2.83;;
2546;SDS011;1283;47.982;7.834;2023-07-29T02:33:39;4.65;;;1.42;;
2546;SDS011;1283;47.982;7.834;2023-07-29T02:36:05;1.73;;;1.02;;
2546;SDS011;1283;47.982;7.834;2023-07-29T02:38:32;2.10;;;1.30;;
2546;SDS011;1283;47.982;7.834;2023-07-29T02:40:58;7.03;;;1.50;;
2546;SDS011;1283;47.982;7.834;2023-07-29T02:43:25;2.60;;;1.15;;
2546;SDS011;1283;47.982;7.834;2023-07-29T02:45:51;8.60;;;1.20;;
2546;SDS011;1283;47.982;7.834;2023-07-29T02:48:17;4.45;;;1.52;;
2546;SDS011;1283;47.982;7.834;2023-07-29T02:50:45;4.45;;;1.15;;
2546;SDS011;1283;47.982;7.834;2023-07-29T02:53:12;1.83;;;1.23;;
2546;SDS011;1283;47.982;7.834;2023-07-29T02:55:39;8.00;;;1.10;;
2546;SDS011;1283;47.982;7.834;2023-07-29T02:58:05;1.90;;;1.20;;
2546;SDS011;1283;47.982;7.834;2023-07-29T03:00:32;2.72;;;1.30;;
2546;SDS011;1283;47.982;7.834;2023-07-29T03:02:59;2.13;;;1.20;;
2546;SDS011;1283;47.982;7.834;2023-07-29T03:05:26;1.55;;;1.20;;
2546;SDS011;1283;47.982;7.834;2023-07-29T03:07:54;2.40;;;1.27;;
2546;SDS011;1283;47.982;7.834;2023-07-29T03:10:21;2.53;;;1.10;;
2546;SDS011;1283;47.982;7.834;2023-07-29T03:12:47;5.25;;;1.35;;
2546;SDS011;1283;47.982;7.834;2023-07-29T03:15:13;2.72;;;1.33;;
2546;SDS011;1283;47.982;7.834;2023-07-29T03:17:40;4.43;;;1.60;;
2546;SDS011;1283;47.982;7.834;2023-07-29T03:20:07;1.83;;;1.23;;
2546;SDS011;1283;47.982;7.834;2023-07-29T03:22:34;1.83;;;1.40;;
2546;SDS011;1283;47.982;7.834;2023-07-29T03:25:02;3.90;;;1.10;;
2546;SDS011;1283;47.982;7.834;2023-07-29T03:27:30;3.63;;;1.38;;
2546;SDS011;1283;47.982;7.834;2023-07-29T03:29:58;3.50;;;1.52;;
2546;SDS011;1283;47.982;7.834;2023-07-29T03:32:25;2.05;;;1.35;;
2546;SDS011;1283;47.982;7.834;2023-07-29T03:34:51;6.65;;;1.55;;
2546;SDS011;1283;47.982;7.834;2023-07-29T03:37:17;2.08;;;1.40;;
2546;SDS011;1283;47.982;7.834;2023-07-29T03:39:44;5.68;;;1.17;;
2546;SDS011;1283;47.982;7.834;2023-07-29T03:42:12;2.95;;;1.48;;
2546;SDS011;1283;47.982;7.834;2023-07-29T03:44:38;1.73;;;1.20;;
2546;SDS011;1283;47.982;7.834;2023-07-29T03:47:05;6.97;;;1.30;;
2546;SDS011;1283;47.982;7.834;2023-07-29T03:49:31;2.75;;;1.30;;
2546;SDS011;1283;47.982;7.834;2023-07-29T03:51:58;1.40;;;1.30;;
2546;SDS011;1283;47.982;7.834;2023-07-29T03:54:24;3.97;;;1.20;;
2546;SDS011;1283;47.982;7.834;2023-07-29T03:56:51;7.38;;;1.52;;
2546;SDS011;1283;47.982;7.834;2023-07-29T03:59:18;4.28;;;1.55;;
2546;SDS011;1283;47.982;7.834;2023-07-29T04:01:47;3.75;;;1.20;;
2546;SDS011;1283;47.982;7.834;2023-07-29T04:04:14;2.17;;;1.30;;
2546;SDS011;1283;47.982;7.834;2023-07-29T04:06:40;2.28;;;1.35;;
2546;SDS011;1283;47.982;7.834;2023-07-29T04:09:07;1.83;;;1.25;;
2546;SDS011;1283;47.982;7.834;2023-07-29T04:11:34;1.70;;;1.02;;
2546;SDS011;1283;47.982;7.834;2023-07-29T04:14:00;6.28;;;1.45;;
2546;SDS011;1283;47.982;7.834;2023-07-29T04:16:28;6.78;;;3.00;;
2546;SDS011;1283;47.982;7.834;2023-07-29T04:18:54;2.35;;;1.63;;
2546;SDS011;1283;47.982;7.834;2023-07-29T04:21:21;9.18;;;1.70;;
2546;SDS011;1283;47.982;7.834;2023-07-29T04:26:19;3.83;;;1.20;;
2546;SDS011;1283;47.982;7.834;2023-07-29T04:28:45;3.85;;;1.50;;
2546;SDS011;1283;47.982;7.834;2023-07-29T04:31:12;7.10;;;1.85;;
2546;SDS011;1283;47.982;7.834;2023-07-29T04:33:39;2.33;;;1.40;;
2546;SDS011;1283;47.982;7.834;2023-07-29T04:36:06;2.20;;;1.52;;
2546;SDS011;1283;47.982;7.834;2023-07-29T04:38:32;3.88;;;1.40;;
2546;SDS011;1283;47.982;7.834;2023-07-29T04:40:59;3.72;;;1.83;;
2546;SDS011;1283;47.982;7.834;2023-07-29T04:43:27;3.70;;;1.48;;
2546;SDS011;1283;47.982;7.834;2023-07-29T04:45:54;7.68;;;1.80;;
2546;SDS011;1283;47.982;7.834;2023-07-29T04:48:20;3.95;;;1.50;;
2546;SDS011;1283;47.982;7.834;2023-07-29T04:50:48;5.15;;;1.40;;
2546;SDS011;1283;47.982;7.834;2023-07-29T04:53:14;1.77;;;1.20;;
2546;SDS011;1283;47.982;7.834;2023-07-29T04:55:41;3.95;;;1.15;;
2546;SDS011;1283;47.982;7.834;2023-07-29T04:58:08;3.20;;;1.67;;
2546;SDS011;1283;47.982;7.834;2023-07-29T05:00:34;1.85;;;1.25;;
2546;SDS011;1283;47.982;7.834;2023-07-29T05:03:01;2.30;;;1.35;;
2546;SDS011;1283;47.982;7.834;2023-07-29T05:05:27;2.20;;;1.33;;
2546;SDS011;1283;47.982;7.834;2023-07-29T05:07:55;2.05;;;1.55;;
2546;SDS011;1283;47.982;7.834;2023-07-29T05:10:21;4.35;;;2.25;;
2546;SDS011;1283;47.982;7.834;2023-07-29T05:12:48;3.83;;;1.40;;
2546;SDS011;1283;47.982;7.834;2023-07-29T05:15:14;5.60;;;1.48;;
2546;SDS011;1283;47.982;7.834;2023-07-29T05:17:41;2.25;;;1.48;;
2546;SDS011;1283;47.982;7.834;2023-07-29T05:20:08;4.43;;;1.65;;
2546;SDS011;1283;47.982;7.834;2023-07-29T05:22:35;2.63;;;1.52;;
2546;SDS011;1283;47.982;7.834;2023-07-29T05:25:03;2.42;;;1.20;;
2546;SDS011;1283;47.982;7.834;2023-07-29T05:27:30;2.05;;;1.20;;
2546;SDS011;1283;47.982;7.834;2023-07-29T05:29:56;4.82;;;1.42;;
2546;SDS011;1283;47.982;7.834;2023-07-29T05:32:23;3.85;;;1.70;;
2546;SDS011;1283;47.982;7.834;2023-07-29T05:34:49;2.47;;;1.20;;
2546;SDS011;1283;47.982;7.834;2023-07-29T05:37:15;5.15;;;1.40;;
2546;SDS011;1283;47.982;7.834;2023-07-29T05:39:42;2.17;;;1.25;;
2546;SDS011;1283;47.982;7.834;2023-07-29T05:42:10;3.53;;;1.20;;
2546;SDS011;1283;47.982;7.834;2023-07-29T05:44:36;4.10;;;1.70;;
2546;SDS011;1283;47.982;7.834;2023-07-29T05:47:03;6.57;;;2.47;;
2546;SDS011;1283;47.982;7.834;2023-07-29T05:49:29;2.40;;;1.58;;
2546;SDS011;1283;47.982;7.834;2023-07-29T05:51:56;2.97;;;1.60;;
2546;SDS011;1283;47.982;7.834;2023-07-29T05:54:22;10.25;;;1.70;;
2546;SDS011;1283;47.982;7.834;2023-07-29T05:56:48;6.50;;;1.50;;
2546;SDS011;1283;47.982;7.834;2023-07-29T05:59:16;3.03;;;1.50;;
2546;SDS011;1283;47.982;7.834;2023-07-29T06:01:42;2.28;;;1.50;;
2546;SDS011;1283;47.982;7.834;2023-07-29T06:04:09;2.70;;;1.20;;
2546;SDS011;1283;47.982;7.834;2023-07-29T06:06:35;3.50;;;1.50;;
2546;SDS011;1283;47.982;7.834;2023-07-29T06:09:02;2.45;;;1.50;;
2546;SDS011;1283;47.982;7.834;2023-07-29T06:11:28;2.15;;;1.38;;
2546;SDS011;1283;47.982;7.834;2023-07-29T06:13:55;3.05;;;1.38;;
2546;SDS011;1283;47.982;7.834;2023-07-29T06:16:23;5.38;;;1.30;;
2546;SDS011;1283;47.982;7.834;2023-07-29T06:18:49;2.10;;;1.35;;
2546;SDS011;1283;47.982;7.834;2023-07-29T06:21:17;3.55;;;1.20;;
2546;SDS011;1283;47.982;7.834;2023-07-29T06:23:45;3.28;;;1.50;;
2546;SDS011;1283;47.982;7.834;2023-07-29T06:26:11;2.05;;;1.30;;
2546;SDS011;1283;47.982;7.834;2023-07-29T06:28:38;3.63;;;1.30;;
2546;SDS011;1283;47.982;7.834;2023-07-29T06:31:04;4.00;;;1.48;;
2546;SDS011;1283;47.982;7.834;2023-07-29T06:33:32;3.38;;;1.50;;
2546;SDS011;1283;47.982;7.834;2023-07-29T06:35:58;4.38;;;1.70;;
2546;SDS011;1283;47.982;7.834;2023-07-29T06:38:25;2.28;;;1.13;;
2546;SDS011;1283;47.982;7.834;2023-07-29T06:40:51;2.03;;;1.50;;
2546;SDS011;1283;47.982;7.834;2023-07-29T06:43:18;16.27;;;2.40;;
2546;SDS011;1283;47.982;7.834;2023-07-29T06:45:44;6.88;;;1.40;;
2546;SDS011;1283;47.982;7.834;2023-07-29T06:48:11;7.07;;;1.75;;
2546;SDS011;1283;47.982;7.834;2023-07-29T06:50:38;3.88;;;1.45;;
2546;SDS011;1283;47.982;7.834;2023-07-29T06:53:05;2.67;;;1.48;;
2546;SDS011;1283;47.982;7.834;2023-07-29T06:55:32;2.92;;;1.50;;
2546;SDS011;1283;47.982;7.834;2023-07-29T06:57:58;2.33;;;1.40;;
2546;SDS011;1283;47.982;7.834;2023-07-29T07:00:25;3.20;;;1.75;;
2546;SDS011;1283;47.982;7.834;2023-07-29T07:02:51;2.58;;;1.70;;
2546;SDS011;1283;47.982;7.834;2023-07-29T07:05:17;4.00;;;1.60;;
2546;SDS011;1283;47.982;7.834;2023-07-29T07:07:45;4.70;;;1.42;;
2546;SDS011;1283;47.982;7.834;2023-07-29T07:10:12;3.63;;;1.55;;
2546;SDS011;1283;47.982;7.834;2023-07-29T07:12:39;4.88;;;1.80;;
2546;SDS011;1283;47.982;7.834;2023-07-29T07:15:06;3.47;;;1.90;;
2546;SDS011;1283;47.982;7.834;2023-07-29T07:17:33;4.97;;;1.70;;
2546;SDS011;1283;47.982;7.834;2023-07-29T07:19:59;6.30;;;1.73;;
2546;SDS011;1283;47.982;7.834;2023-07-29T07:22:26;4.82;;;1.85;;
2546;SDS011;1283;47.982;7.834;2023-07-29T07:24:54;5.18;;;1.70;;
2546;SDS011;1283;47.982;7.834;2023-07-29T07:27:20;3.38;;;2.05;;
2546;SDS011;1283;47.982;7.834;2023-07-29T07:29:46;2.90;;;1.98;;
2546;SDS011;1283;47.982;7.834;2023-07-29T07:32:13;3.17;;;1.60;;
2546;SDS011;1283;47.982;7.834;2023-07-29T07:34:39;3.95;;;1.60;;
2546;SDS011;1283;47.982;7.834;2023-07-29T07:37:06;2.65;;;1.38;;
2546;SDS011;1283;47.982;7.834;2023-07-29T07:39:32;1.70;;;1.33;;
2546;SDS011;1283;47.982;7.834;2023-07-29T07:42:00;3.03;;;1.70;;
2546;SDS011;1283;47.982;7.834;2023-07-29T07:44:26;2.33;;;1.30;;
2546;SDS011;1283;47.982;7.834;2023-07-29T07:46:53;3.65;;;1.65;;
2546;SDS011;1283;47.982;7.834;2023-07-29T07:49:19;2.50;;;1.42;;
2546;SDS011;1283;47.982;7.834;2023-07-29T07:51:46;2.85;;;1.60;;
2546;SDS011;1283;47.982;7.834;2023-07-29T07:54:12;1.55;;;1.27;;
2546;SDS011;1283;47.982;7.834;2023-07-29T07:56:38;1.67;;;1.30;;
2546;SDS011;1283;47.982;7.834;2023-07-29T07:59:06;2.85;;;1.50;;
2546;SDS011;1283;47.982;7.834;2023-07-29T08:01:34;3.13;;;1.52;;
2546;SDS011;1283;47.982;7.834;2023-07-29T08:04:00;2.60;;;1.58;;
2546;SDS011;1283;47.982;7.834;2023-07-29T08:06:27;1.75;;;1.13;;
2546;SDS011;1283;47.982;7.834;2023-07-29T08:08:53;1.80;;;1.58;;
2546;SDS011;1283;47.982;7.834;2023-07-29T08:11:19;2.65;;;1.30;;
2546;SDS011;1283;47.982;7.834;2023-07-29T08:13:46;4.97;;;1.40;;
2546;SDS011;1283;47.982;7.834;2023-07-29T08:16:13;1.90;;;1.50;;
2546;SDS011;1283;47.982;7.834;2023-07-29T08:18:40;3.92;;;1.35;;
2546;SDS011;1283;47.982;7.834;2023-07-29T08:21:06;2.70;;;1.60;;
2546;SDS011;1283;47.982;7.834;2023-07-29T08:23:33;4.47;;;1.90;;
2546;SDS011;1283;47.982;7.834;2023-07-29T08:26:01;2.40;;;1.63;;
2546;SDS011;1283;47.982;7.834;2023-07-29T08:28:30;8.00;;;1.70;;
2546;SDS011;1283;47.982;7.834;2023-07-29T08:30:57;4.88;;;1.65;;
2546;SDS011;1283;47.982;7.834;2023-07-29T08:33:25;3.22;;;1.58;;
2546;SDS011;1283;47.982;7.834;2023-07-29T08:35:52;2.97;;;1.73;;
2546;SDS011;1283;47.982;7.834;2023-07-29T08:38:18;3.55;;;2.10;;
2546;SDS011;1283;47.982;7.834;2023-07-29T08:40:45;3.97;;;1.65;;
2546;SDS011;1283;47.982;7.834;2023-07-29T08:43:17;6.90;;;1.60;;
2546;SDS011;1283;47.982;7.834;2023-07-29T08:45:45;4.93;;;1.60;;
2546;SDS011;1283;47.982;7.834;2023-07-29T08:48:12;3.38;;;1.90;;
2546;SDS011;1283;47.982;7.834;2023-07-29T08:50:40;2.95;;;1.60;;
2546;SDS011;1283;47.982;7.834;2023-07-29T08:53:06;2.65;;;1.63;;
2546;SDS011;1283;47.982;7.834;2023-07-29T08:55:33;1.92;;;1.48;;
2546;SDS011;1283;47.982;7.834;2023-07-29T08:58:00;3.35;;;2.30;;
2546;SDS011;1283;47.982;7.834;2023-07-29T09:00:27;2.60;;;1.40;;
2546;SDS011;1283;47.982;7.834;2023-07-29T09:02:54;3.35;;;1.33;;
2546;SDS011;1283;47.982;7.834;2023-07-29T09:05:22;4.78;;;1.58;;
2546;SDS011;1283;47.982;7.834;2023-07-29T09:07:50;1.70;;;1.40;;
2546;SDS011;1283;47.982;7.834;2023-07-29T09:10:19;2.15;;;1.65;;
2546;SDS011;1283;47.982;7.834;2023-07-29T09:12:47;2.97;;;1.83;;
2546;SDS011;1283;47.982;7.834;2023-07-29T09:15:20;5.70;;;2.25;;
2546;SDS011;1283;47.982;7.834;2023-07-29T09:17:52;1.92;;;1.65;;
2546;SDS011;1283;47.982;7.834;2023-07-29T09:20:22;3.97;;;1.90;;
2546;SDS011;1283;47.982;7.834;2023-07-29T09:22:51;2.53;;;1.60;;
2546;SDS011;1283;47.982;7.834;2023-07-29T09:25:22;4.40;;;1.90;;
2546;SDS011;1283;47.982;7.834;2023-07-29T09:27:49;2.70;;;1.60;;
2546;SDS011;1283;47.982;7.834;2023-07-29T09:30:16;3.47;;;1.80;;
2546;SDS011;1283;47.982;7.834;2023-07-29T09:32:42;8.65;;;2.00;;
2546;SDS011;1283;47.982;7.834;2023-07-29T09:35:09;4.00;;;1.88;;
2546;SDS011;1283;47.982;7.834;2023-07-29T09:37:37;2.78;;;2.13;;
2546;SDS011;1283;47.982;7.834;2023-07-29T09:40:06;6.38;;;2.28;;
2546;SDS011;1283;47.982;7.834;2023-07-29T09:42:33;2.30;;;2.00;;
2546;SDS011;1283;47.982;7.834;2023-07-29T09:44:59;2.42;;;1.95;;
2546;SDS011;1283;47.982;7.834;2023-07-29T09:47:26;3.10;;;1.77;;
2546;SDS011;1283;47.982;7.834;2023-07-29T09:49:52;4.30;;;2.10;;
2546;SDS011;1283;47.982;7.834;2023-07-29T09:52:19;3.17;;;2.33;;
2546;SDS011;1283;47.982;7.834;2023-07-29T09:54:46;4.15;;;2.15;;
2546;SDS011;1283;47.982;7.834;2023-07-29T09:57:14;3.35;;;2.22;;
2546;SDS011;1283;47.982;7.834;2023-07-29T09:59:43;4.95;;;2.20;;
2546;SDS011;1283;47.982;7.834;2023-07-29T10:02:09;3.70;;;2.10;;
2546;SDS011;1283;47.982;7.834;2023-07-29T10:04:40;4.60;;;2.58;;
2546;SDS011;1283;47.982;7.834;2023-07-29T10:07:07;4.03;;;2.00;;
2546;SDS011;1283;47.982;7.834;2023-07-29T10:09:35;6.20;;;1.80;;
2546;SDS011;1283;47.982;7.834;2023-07-29T10:12:02;4.22;;;2.00;;
2546;SDS011;1283;47.982;7.834;2023-07-29T10:14:32;3.65;;;2.13;;
2546;SDS011;1283;47.982;7.834;2023-07-29T10:16:58;2.97;;;2.10;;
2546;SDS011;1283;47.982;7.834;2023-07-29T10:19:26;3.88;;;2.00;;
2546;SDS011;1283;47.982;7.834;2023-07-29T10:21:52;3.78;;;2.28;;
2546;SDS011;1283;47.982;7.834;2023-07-29T10:24:22;3.50;;;2.13;;
2546;SDS011;1283;47.982;7.834;2023-07-29T10:26:54;3.13;;;1.95;;
2546;SDS011;1283;47.982;7.834;2023-07-29T10:29:24;3.83;;;2.10;;
2546;SDS011;1283;47.982;7.834;2023-07-29T10:31:52;3.70;;;1.85;;
2546;SDS011;1283;47.982;7.834;2023-07-29T10:34:19;3.72;;;2.45;;
2546;SDS011;1283;47.982;7.834;2023-07-29T10:36:46;6.93;;;2.53;;
2546;SDS011;1283;47.982;7.834;2023-07-29T10:39:14;4.60;;;2.10;;
2546;SDS011;1283;47.982;7.834;2023-07-29T10:41:56;4.82;;;2.30;;
2546;SDS011;1283;47.982;7.834;2023-07-29T10:47:15;4.95;;;2.40;;
2546;SDS011;1283;47.982;7.834;2023-07-29T10:49:43;3.47;;;2.10;;
2546;SDS011;1283;47.982;7.834;2023-07-29T10:52:12;5.25;;;2.05;;
2546;SDS011;1283;47.982;7.834;2023-07-29T10:54:41;3.15;;;1.85;;
2546;SDS011;1283;47.982;7.834;2023-07-29T10:57:12;4.72;;;1.70;;
2546;SDS011;1283;47.982;7.834;2023-07-29T10:59:39;2.80;;;1.60;;
2546;SDS011;1283;47.982;7.834;2023-07-29T11:02:11;4.00;;;2.00;;
2546;SDS011;1283;47.982;7.834;2023-07-29T11:04:47;5.40;;;1.88;;
2546;SDS011;1283;47.982;7.834;2023-07-29T11:07:26;8.20;;;2.13;;
2546;SDS011;1283;47.982;7.834;2023-07-29T11:09:54;2.30;;;1.80;;
2546;SDS011;1283;47.982;7.834;2023-07-29T11:12:34;4.18;;;2.30;;
2546;SDS011;1283;47.982;7.834;2023-07-29T11:15:05;4.30;;;1.77;;
2546;SDS011;1283;47.982;7.834;2023-07-29T11:17:39;2.83;;;2.10;;
2546;SDS011;1283;47.982;7.834;2023-07-29T11:20:08;2.53;;;1.60;;
2546;SDS011;1283;47.982;7.834;2023-07-29T11:22:35;2.67;;;1.70;;
2546;SDS011;1283;47.982;7.834;2023-07-29T11:25:02;2.15;;;1.42;;
2546;SDS011;1283;47.982;7.834;2023-07-29T11:27:28;3.88;;;1.38;;
2546;SDS011;1283;47.982;7.834;2023-07-29T11:29:56;5.90;;;1.63;;
2546;SDS011;1283;47.982;7.834;2023-07-29T11:32:23;2.30;;;1.65;;
2546;SDS011;1283;47.982;7.834;2023-07-29T11:34:49;2.45;;;1.45;;
2546;SDS011;1283;47.982;7.834;2023-07-29T11:37:17;2.92;;;1.63;;
2546;SDS011;1283;47.982;7.834;2023-07-29T11:39:45;5.70;;;2.22;;
2546;SDS011;1283;47.982;7.834;2023-07-29T11:42:12;3.22;;;1.50;;
2546;SDS011;1283;47.982;7.834;2023-07-29T11:44:39;2.63;;;1.70;;
2546;SDS011;1283;47.982;7.834;2023-07-29T11:47:06;2.15;;;1.60;;
2546;SDS011;1283;47.982;7.834;2023-07-29T11:49:32;2.65;;;1.48;;
2546;SDS011;1283;47.982;7.834;2023-07-29T11:51:59;3.17;;;1.60;;
2546;SDS011;1283;47.982;7.834;2023-07-29T11:54:27;2.25;;;1.52;;
2546;SDS011;1283;47.982;7.834;2023-07-29T11:56:53;2.40;;;1.63;;
2546;SDS011;1283;47.982;7.834;2023-07-29T11:59:21;3.38;;;1.65;;
2546;SDS011;1283;47.982;7.834;2023-07-29T12:01:47;2.55;;;1.55;;
2546;SDS011;1283;47.982;7.834;2023-07-29T12:04:14;5.80;;;2.03;;
2546;SDS011;1283;47.982;7.834;2023-07-29T12:06:40;4.05;;;1.60;;
2546;SDS011;1283;47.982;7.834;2023-07-29T12:09:07;3.10;;;1.65;;
2546;SDS011;1283;47.982;7.834;2023-07-29T12:11:35;2.42;;;1.55;;
2546;SDS011;1283;47.982;7.834;2023-07-29T12:14:02;2.78;;;1.40;;
2546;SDS011;1283;47.982;7.834;2023-07-29T12:16:28;3.72;;;1.90;;
2546;SDS011;1283;47.982;7.834;2023-07-29T12:18:59;2.17;;;1.40;;
2546;SDS011;1283;47.982;7.834;2023-07-29T12:21:26;3.13;;;1.65;;
2546;SDS011;1283;47.982;7.834;2023-07-29T12:23:52;2.80;;;1.63;;
2546;SDS011;1283;47.982;7.834;2023-07-29T12:26:19;2.40;;;1.73;;
2546;SDS011;1283;47.982;7.834;2023-07-29T12:28:47;4.20;;;1.98;;
2546;SDS011;1283;47.982;7.834;2023-07-29T12:31:13;2.88;;;1.70;;
2546;SDS011;1283;47.982;7.834;2023-07-29T12:33:40;2.25;;;1.80;;
2546;SDS011;1283;47.982;7.834;2023-07-29T12:36:07;3.08;;;1.90;;
2546;SDS011;1283;47.982;7.834;2023-07-29T12:38:35;3.38;;;1.73;;
2546;SDS011;1283;47.982;7.834;2023-07-29T12:41:01;3.97;;;1.67;;
2546;SDS011;1283;47.982;7.834;2023-07-29T12:43:28;4.85;;;1.60;;
2546;SDS011;1283;47.982;7.834;2023-07-29T12:45:56;3.05;;;1.70;;
2546;SDS011;1283;47.982;7.834;2023-07-29T12:48:23;2.97;;;1.60;;
2546;SDS011;1283;47.982;7.834;2023-07-29T12:50:49;2.20;;;1.50;;
2546;SDS011;1283;47.982;7.834;2023-07-29T12:53:16;2.67;;;1.52;;
2546;SDS011;1283;47.982;7.834;2023-07-29T12:55:43;6.38;;;2.00;;
2546;SDS011;1283;47.982;7.834;2023-07-29T12:58:09;4.47;;;1.98;;
2546;SDS011;1283;47.982;7.834;2023-07-29T13:00:35;2.78;;;1.52;;
2546;SDS011;1283;47.982;7.834;2023-07-29T13:03:04;7.38;;;1.75;;
2546;SDS011;1283;47.982;7.834;2023-07-29T13:05:31;2.60;;;1.45;;
2546;SDS011;1283;47.982;7.834;2023-07-29T13:07:58;2.40;;;1.50;;
2546;SDS011;1283;47.982;7.834;2023-07-29T13:10:25;2.50;;;1.67;;
2546;SDS011;1283;47.982;7.834;2023-07-29T13:12:51;3.38;;;1.92;;
2546;SDS011;1283;47.982;7.834;2023-07-29T13:15:18;4.30;;;1.65;;
2546;SDS011;1283;47.982;7.834;2023-07-29T13:17:44;2.65;;;1.52;;
2546;SDS011;1283;47.982;7.834;2023-07-29T13:20:12;2.35;;;1.63;;
2546;SDS011;1283;47.982;7.834;2023-07-29T13:22:38;2.47;;;1.60;;
2546;SDS011;1283;47.982;7.834;2023-07-29T13:25:05;2.72;;;1.85;;
2546;SDS011;1283;47.982;7.834;2023-07-29T13:27:31;3.28;;;1.42;;
2546;SDS011;1283;47.982;7.834;2023-07-29T13:29:58;3.53;;;1.77;;
2546;SDS011;1283;47.982;7.834;2023-07-29T13:32:24;1.95;;;1.50;;
2546;SDS011;1283;47.982;7.834;2023-07-29T13:34:51;3.67;;;1.98;;
2546;SDS011;1283;47.982;7.834;2023-07-29T13:37:18;2.28;;;1.73;;
2546;SDS011;1283;47.982;7.834;2023-07-29T13:39:45;2.47;;;1.80;;
2546;SDS011;1283;47.982;7.834;2023-07-29T13:42:11;5.60;;;1.50;;
2546;SDS011;1283;47.982;7.834;2023-07-29T13:44:38;2.13;;;1.48;;
2546;SDS011;1283;47.982;7.834;2023-07-29T13:47:04;5.13;;;1.60;;
2546;SDS011;1283;47.982;7.834;2023-07-29T13:49:31;3.67;;;1.63;;
2546;SDS011;1283;47.982;7.834;2023-07-29T13:51:58;3.03;;;1.77;;
2546;SDS011;1283;47.982;7.834;2023-07-29T13:54:26;4.15;;;1.55;;
2546;SDS011;1283;47.982;7.834;2023-07-29T13:56:53;1.83;;;1.42;;
2546;SDS011;1283;47.982;7.834;2023-07-29T13:59:20;1.83;;;1.45;;
2546;SDS011;1283;47.982;7.834;2023-07-29T14:01:46;3.17;;;1.63;;
2546;SDS011;1283;47.982;7.834;2023-07-29T14:04:12;2.28;;;1.75;;
2546;SDS011;1283;47.982;7.834;2023-07-29T14:06:39;6.07;;;1.77;;
2546;SDS011;1283;47.982;7.834;2023-07-29T14:09:05;4.60;;;1.65;;
2546;SDS011;1283;47.982;7.834;2023-07-29T14:11:33;3.10;;;1.60;;
2546;SDS011;1283;47.982;7.834;2023-07-29T14:14:00;2.65;;;1.67;;
2546;SDS011;1283;47.982;7.834;2023-07-29T14:16:26;4.05;;;2.00;;
2546;SDS011;1283;47.982;7.834;2023-07-29T14:18:53;2.45;;;1.67;;
2546;SDS011;1283;47.982;7.834;2023-07-29T14:21:19;5.65;;;1.60;;
2546;SDS011;1283;47.982;7.834;2023-07-29T14:23:45;7.43;;;2.42;;
2546;SDS011;1283;47.982;7.834;2023-07-29T14:26:12;5.03;;;2.50;;
2546;SDS011;1283;47.982;7.834;2023-07-29T14:28:40;12.30;;;2.88;;
2546;SDS011;1283;47.982;7.834;2023-07-29T14:31:06;8.57;;;2.83;;
2546;SDS011;1283;47.982;7.834;2023-07-29T14:33:32;6.80;;;2.30;;
2546;SDS011;1283;47.982;7.834;2023-07-29T14:35:59;3.40;;;2.25;;
2546;SDS011;1283;47.982;7.834;2023-07-29T14:38:26;5.15;;;2.60;;
2546;SDS011;1283;47.982;7.834;2023-07-29T14:40:52;7.32;;;3.00;;
2546;SDS011;1283;47.982;7.834;2023-07-29T14:43:19;8.70;;;3.33;;
2546;SDS011;1283;47.982;7.834;2023-07-29T14:45:48;7.43;;;2.78;;
2546;SDS011;1283;47.982;7.834;2023-07-29T14:48:14;7.88;;;2.58;;
2546;SDS011;1283;47.982;7.834;2023-07-29T14:50:41;7.10;;;2.30;;
2546;SDS011;1283;47.982;7.834;2023-07-29T14:53:08;5.70;;;2.67;;
2546;SDS011;1283;47.982;7.834;2023-07-29T14:55:36;4.53;;;2.30;;
2546;SDS011;1283;47.982;7.834;2023-07-29T14:58:02;4.63;;;2.80;;
2546;SDS011;1283;47.982;7.834;2023-07-29T15:00:29;5.60;;;2.45;;
2546;SDS011;1283;47.982;7.834;2023-07-29T15:02:57;5.85;;;2.30;;
2546;SDS011;1283;47.982;7.834;2023-07-29T15:05:24;4.18;;;2.35;;
2546;SDS011;1283;47.982;7.834;2023-07-29T15:07:52;4.63;;;3.03;;
2546;SDS011;1283;47.982;7.834;2023-07-29T15:10:20;7.70;;;3.42;;
2546;SDS011;1283;47.982;7.834;2023-07-29T15:12:46;4.95;;;2.72;;
2546;SDS011;1283;47.982;7.834;2023-07-29T15:15:13;4.90;;;2.22;;
2546;SDS011;1283;47.982;7.834;2023-07-29T15:17:39;3.65;;;2.20;;
2546;SDS011;1283;47.982;7.834;2023-07-29T15:20:07;4.30;;;2.45;;
2546;SDS011;1283;47.982;7.834;2023-07-29T15:22:34;5.55;;;2.88;;